createdAt,value
2023-04-25T00:00:53.719Z,9.45
2023-04-25T00:01:55.556Z,6.95
2023-04-25T00:02:58.743Z,8.07
2023-04-25T00:04:01.856Z,8.15
2023-04-25T00:05:06.344Z,7.72
2023-04-25T00:06:08.606Z,8.65
2023-04-25T00:07:12.788Z,9.50
2023-04-25T00:08:14.727Z,9.27
2023-04-25T00:09:17.591Z,10.50
2023-04-25T00:10:19.948Z,14.40
2023-04-25T00:11:23.003Z,10.57
2023-04-25T00:12:25.269Z,9.85
2023-04-25T00:13:28.265Z,7.88
2023-04-25T00:14:30.595Z,12.15
2023-04-25T00:15:33.411Z,11.38
2023-04-25T00:16:35.944Z,11.43
2023-04-25T00:17:39.767Z,12.43
2023-04-25T00:18:42.432Z,12.93
2023-04-25T00:19:47.203Z,12.65
2023-04-25T00:20:49.193Z,14.10
2023-04-25T00:21:51.949Z,11.55
2023-04-25T00:22:55.259Z,8.75
2023-04-25T00:23:58.606Z,10.82
2023-04-25T00:25:01.227Z,10.75
2023-04-25T00:26:04.743Z,14.20
2023-04-25T00:27:06.985Z,13.38
2023-04-25T00:28:10.428Z,12.27
2023-04-25T00:29:12.301Z,10.95
2023-04-25T00:30:16.007Z,10.80
2023-04-25T00:31:18.353Z,10.32
2023-04-25T00:32:21.234Z,8.65
2023-04-25T00:33:23.338Z,11.20
2023-04-25T00:34:26.270Z,10.48
2023-04-25T00:35:28.188Z,8.15
2023-04-25T00:36:31.912Z,12.93
2023-04-25T00:37:33.737Z,9.90
2023-04-25T00:38:39.168Z,10.57
2023-04-25T00:39:41.177Z,12.23
2023-04-25T00:40:44.600Z,9.05
2023-04-25T00:41:46.549Z,12.80
2023-04-25T00:42:49.759Z,10.15
2023-04-25T00:43:52.487Z,10.30
2023-04-25T00:44:55.441Z,11.48
2023-04-25T00:45:58.645Z,10.73
2023-04-25T00:47:02.652Z,11.18
2023-04-25T00:48:05.734Z,10.95
2023-04-25T00:49:09.725Z,10.27
2023-04-25T00:50:12.984Z,9.13
2023-04-25T00:51:18.320Z,8.63
2023-04-25T00:52:20.906Z,8.75
2023-04-25T00:53:24.232Z,9.00
2023-04-25T00:54:27.668Z,7.85
2023-04-25T00:55:30.504Z,7.88
2023-04-25T00:56:32.320Z,9.07
2023-04-25T00:57:35.397Z,8.38
2023-04-25T00:58:37.626Z,9.18
2023-04-25T00:59:40.444Z,10.50
2023-04-25T01:00:42.831Z,8.50
2023-04-25T01:01:45.836Z,8.77
2023-04-25T01:02:47.926Z,9.93
2023-04-25T01:03:52.015Z,10.52
2023-04-25T01:04:54.467Z,14.02
2023-04-25T01:05:57.562Z,18.58
2023-04-25T01:06:59.470Z,23.40
2023-04-25T01:08:02.351Z,20.55
2023-04-25T01:09:05.658Z,14.10
2023-04-25T01:10:10.855Z,23.08
2023-04-25T01:11:13.156Z,18.02
2023-04-25T01:12:16.407Z,14.55
2023-04-25T01:13:18.550Z,13.60
2023-04-25T01:14:21.838Z,19.23
2023-04-25T01:15:23.626Z,17.13
2023-04-25T01:16:27.134Z,19.63
2023-04-25T01:17:29.102Z,18.33
2023-04-25T01:18:31.971Z,18.45
2023-04-25T01:19:34.050Z,19.45
2023-04-25T01:20:37.297Z,22.08
2023-04-25T01:21:41.354Z,20.70
2023-04-25T01:22:44.376Z,19.58
2023-04-25T01:23:46.713Z,17.92
2023-04-25T01:24:49.562Z,20.48
2023-04-25T01:25:52.040Z,18.27
2023-04-25T01:26:57.289Z,21.42
2023-04-25T01:28:00.361Z,17.80
2023-04-25T01:29:04.546Z,16.63
2023-04-25T01:30:08.365Z,18.85
2023-04-25T01:31:12.639Z,16.45
2023-04-25T01:32:14.820Z,22.33
2023-04-25T01:33:18.212Z,19.25
2023-04-25T01:34:20.687Z,17.58
2023-04-25T01:35:24.872Z,20.08
2023-04-25T01:36:29.320Z,18.38
2023-04-25T01:37:33.476Z,20.90
2023-04-25T01:38:36.094Z,19.90
2023-04-25T01:39:39.133Z,25.08
2023-04-25T01:40:42.228Z,19.08
2023-04-25T01:41:45.273Z,21.25
2023-04-25T01:42:47.277Z,19.00
2023-04-25T01:43:50.373Z,21.60
2023-04-25T01:44:52.404Z,22.92
2023-04-25T01:45:55.711Z,23.92
2023-04-25T01:46:57.742Z,23.23
2023-04-25T01:48:00.574Z,21.10
2023-04-25T01:49:03.190Z,21.05
2023-04-25T01:50:08.470Z,22.85
2023-04-25T01:51:12.591Z,24.08
2023-04-25T01:52:15.848Z,19.65
2023-04-25T01:53:19.211Z,20.90
2023-04-25T01:54:23.246Z,18.02
2023-04-25T01:55:25.749Z,17.52
2023-04-25T01:56:39.853Z,22.05
2023-04-25T01:57:43.425Z,18.65
2023-04-25T01:58:47.849Z,15.65
2023-04-25T01:59:59.710Z,14.75
2023-04-25T02:01:17.460Z,16.27
2023-04-25T02:02:27.865Z,16.83
2023-04-25T02:03:31.437Z,13.45
2023-04-25T02:04:34.217Z,12.43
2023-04-25T02:05:38.547Z,12.23
2023-04-25T02:06:42.792Z,12.80
2023-04-25T02:07:45.862Z,12.10
2023-04-25T02:08:49.083Z,16.85
2023-04-25T02:09:52.896Z,17.15
2023-04-25T02:10:56.087Z,13.05
2023-04-25T02:12:01.052Z,13.93
2023-04-25T02:13:09.853Z,13.85
2023-04-25T02:14:26.493Z,13.65
2023-04-25T02:15:49.755Z,12.98
2023-04-25T02:16:53.990Z,13.20
2023-04-25T02:17:57.075Z,15.30
2023-04-25T02:18:59.021Z,15.10
2023-04-25T02:20:02.868Z,12.75
2023-04-25T02:21:04.852Z,13.55
2023-04-25T02:22:07.660Z,15.90
2023-04-25T02:23:09.715Z,15.07
2023-04-25T02:24:13.932Z,13.65
2023-04-25T02:25:16.957Z,14.95
2023-04-25T02:26:19.884Z,15.95
2023-04-25T02:27:21.687Z,14.02
2023-04-25T02:28:25.741Z,12.75
2023-04-25T02:29:27.567Z,14.20
2023-04-25T02:30:30.607Z,14.02
2023-04-25T02:31:32.920Z,16.40
2023-04-25T02:32:36.219Z,12.10
2023-04-25T02:33:38.531Z,12.75
2023-04-25T02:34:42.599Z,12.55
2023-04-25T02:35:44.457Z,13.45
2023-04-25T02:36:47.261Z,12.95
2023-04-25T02:37:53.350Z,14.80
2023-04-25T02:38:56.213Z,10.93
2023-04-25T02:39:59.378Z,13.80
2023-04-25T02:41:02.362Z,14.52
2023-04-25T02:42:04.256Z,12.30
2023-04-25T02:43:07.025Z,13.93
2023-04-25T02:44:08.954Z,12.63
2023-04-25T02:45:12.134Z,12.88
2023-04-25T02:46:14.033Z,12.57
2023-04-25T02:47:17.363Z,12.68
2023-04-25T02:48:19.277Z,11.82
2023-04-25T02:49:22.176Z,11.55
2023-04-25T02:50:24.233Z,13.10
2023-04-25T02:51:27.277Z,14.13
2023-04-25T02:52:29.126Z,14.45
2023-04-25T02:53:39.836Z,11.07
2023-04-25T02:54:42.037Z,12.75
2023-04-25T02:55:46.337Z,11.93
2023-04-25T02:56:48.383Z,14.55
2023-04-25T02:57:57.271Z,14.13
2023-04-25T02:59:23.182Z,15.15
2023-04-25T03:00:25.328Z,14.00
2023-04-25T03:01:28.183Z,11.23
2023-04-25T03:02:30.219Z,12.45
2023-04-25T03:03:33.211Z,13.18
2023-04-25T03:04:35.177Z,12.25
2023-04-25T03:05:38.544Z,10.88
2023-04-25T03:06:41.384Z,13.40
2023-04-25T03:07:45.070Z,12.43
2023-04-25T03:08:46.919Z,12.18
2023-04-25T03:09:49.777Z,10.95
2023-04-25T03:10:56.880Z,11.32
2023-04-25T03:12:01.186Z,11.10
2023-04-25T03:13:03.495Z,12.00
2023-04-25T03:14:06.310Z,11.73
2023-04-25T03:15:08.609Z,10.55
2023-04-25T03:16:12.555Z,11.85
2023-04-25T03:17:14.390Z,12.98
2023-04-25T03:18:17.182Z,11.52
2023-04-25T03:19:19.604Z,11.05
2023-04-25T03:20:22.541Z,11.63
2023-04-25T03:21:24.632Z,11.75
2023-04-25T03:22:28.172Z,11.57
2023-04-25T03:23:29.986Z,11.15
2023-04-25T03:24:32.800Z,10.52
2023-04-25T03:25:34.753Z,10.80
2023-04-25T03:26:39.053Z,10.88
2023-04-25T03:27:40.876Z,12.23
2023-04-25T03:28:44.090Z,10.95
2023-04-25T03:29:45.891Z,13.57
2023-04-25T03:30:48.782Z,10.07
2023-04-25T03:31:50.918Z,10.10
2023-04-25T03:32:53.722Z,14.02
2023-04-25T03:33:55.559Z,13.88
2023-04-25T03:35:00.176Z,11.63
2023-04-25T03:36:03.638Z,13.60
2023-04-25T03:37:06.671Z,12.50
2023-04-25T03:38:12.960Z,14.20
2023-04-25T03:39:16.949Z,15.60
2023-04-25T03:40:23.451Z,13.88
2023-04-25T03:41:55.909Z,18.95
2023-04-25T03:42:57.774Z,11.65
2023-04-25T03:44:00.905Z,12.20
2023-04-25T03:45:02.855Z,10.50
2023-04-25T03:46:06.561Z,11.40
2023-04-25T03:47:08.486Z,12.52
2023-04-25T03:48:11.374Z,10.05
2023-04-25T03:49:15.460Z,9.95
2023-04-25T03:50:34.131Z,11.27
2023-04-25T03:51:36.082Z,8.98
2023-04-25T03:52:38.875Z,11.05
2023-04-25T03:53:41.218Z,9.60
2023-04-25T03:55:05.640Z,12.38
2023-04-25T03:56:07.868Z,10.63
2023-04-25T03:57:14.457Z,12.23
2023-04-25T03:58:18.124Z,10.07
2023-04-25T03:59:21.216Z,13.98
2023-04-25T04:00:24.446Z,9.13
2023-04-25T04:01:28.067Z,9.70
2023-04-25T04:02:30.930Z,10.18
2023-04-25T04:03:34.236Z,7.80
2023-04-25T04:04:37.707Z,8.55
2023-04-25T04:05:41.668Z,7.18
2023-04-25T04:06:45.373Z,9.55
2023-04-25T04:07:52.117Z,7.70
2023-04-25T04:08:54.918Z,7.38
2023-04-25T04:09:57.135Z,9.88
2023-04-25T04:11:05.289Z,6.45
2023-04-25T04:12:08.225Z,6.78
2023-04-25T04:13:13.792Z,7.72
2023-04-25T04:14:15.676Z,6.85
2023-04-25T04:15:21.958Z,7.53
2023-04-25T04:16:24.218Z,7.15
2023-04-25T04:17:27.250Z,8.20
2023-04-25T04:18:29.283Z,7.93
2023-04-25T04:19:33.309Z,7.88
2023-04-25T04:20:42.038Z,6.32
2023-04-25T04:21:44.820Z,7.75
2023-04-25T04:22:47.521Z,7.65
2023-04-25T04:23:51.859Z,7.55
2023-04-25T04:24:55.253Z,7.63
2023-04-25T04:26:12.406Z,7.95
2023-04-25T04:27:27.336Z,7.68
2023-04-25T04:28:38.925Z,9.23
2023-04-25T04:30:02.754Z,12.45
2023-04-25T04:31:14.026Z,10.82
2023-04-25T04:32:17.328Z,11.40
2023-04-25T04:33:20.511Z,12.60
2023-04-25T04:34:28.005Z,13.95
2023-04-25T04:35:30.076Z,16.30
2023-04-25T04:36:33.030Z,14.70
2023-04-25T04:37:35.416Z,15.27
2023-04-25T04:38:40.716Z,16.38
2023-04-25T04:39:44.831Z,18.77
2023-04-25T04:41:08.064Z,15.65
2023-04-25T04:42:37.218Z,14.85
2023-04-25T04:44:04.199Z,13.77
2023-04-25T04:45:13.870Z,15.82
2023-04-25T04:46:47.919Z,18.52
2023-04-25T04:48:10.077Z,17.85
2023-04-25T04:49:23.589Z,11.65
2023-04-25T04:50:46.006Z,12.07
2023-04-25T04:52:14.657Z,12.65
2023-04-25T04:53:36.823Z,10.77
2023-04-25T04:55:06.758Z,10.07
2023-04-25T04:56:39.338Z,11.85
2023-04-25T04:58:00.696Z,10.05
2023-04-25T04:59:28.143Z,9.15
2023-04-25T05:00:53.760Z,9.50
2023-04-25T05:02:11.636Z,7.30
2023-04-25T05:03:33.000Z,7.25
2023-04-25T05:05:02.047Z,7.35
2023-04-25T05:06:22.493Z,6.95
2023-04-25T05:07:44.878Z,7.13
2023-04-25T05:09:07.270Z,8.35
2023-04-25T05:10:28.962Z,8.10
2023-04-25T05:11:54.213Z,7.35
2023-04-25T05:13:12.481Z,8.73
2023-04-25T05:14:32.217Z,10.02
2023-04-25T05:15:48.135Z,7.90
2023-04-25T05:17:09.529Z,6.97
2023-04-25T05:18:38.264Z,6.40
2023-04-25T05:19:47.081Z,8.57
2023-04-25T05:20:55.697Z,6.70
2023-04-25T05:22:36.956Z,9.05
2023-04-25T05:23:53.686Z,7.05
2023-04-25T05:25:15.677Z,5.30
2023-04-25T05:26:34.153Z,9.88
2023-04-25T05:27:52.079Z,6.93
2023-04-25T05:29:17.242Z,11.20
2023-04-25T05:30:39.723Z,7.10
2023-04-25T05:31:54.219Z,6.57
2023-04-25T05:32:57.264Z,8.70
2023-04-25T05:33:59.334Z,6.28
2023-04-25T05:35:12.647Z,8.90
2023-04-25T05:36:19.795Z,6.63
2023-04-25T05:37:23.275Z,6.90
2023-04-25T05:38:35.161Z,7.43
2023-04-25T05:39:56.137Z,5.80
2023-04-25T05:41:31.413Z,5.60
2023-04-25T05:42:49.067Z,6.88
2023-04-25T05:44:03.341Z,7.38
2023-04-25T05:45:29.455Z,7.07
2023-04-25T05:46:42.453Z,5.70
2023-04-25T05:47:57.143Z,5.80
2023-04-25T05:49:12.134Z,5.68
2023-04-25T05:50:34.007Z,5.75
2023-04-25T05:51:39.692Z,6.28
2023-04-25T05:52:49.852Z,5.38
2023-04-25T05:54:11.875Z,7.18
2023-04-25T05:55:14.522Z,7.55
2023-04-25T05:56:18.130Z,5.93
2023-04-25T05:57:23.541Z,5.55
2023-04-25T05:58:26.498Z,5.05
2023-04-25T05:59:29.530Z,5.47
2023-04-25T06:00:32.990Z,4.85
2023-04-25T06:01:34.928Z,6.45
2023-04-25T06:02:39.485Z,6.32
2023-04-25T06:03:44.113Z,4.90
2023-04-25T06:04:47.302Z,6.20
2023-04-25T06:05:49.338Z,4.78
2023-04-25T06:06:52.976Z,6.60
2023-04-25T06:07:54.783Z,5.65
2023-04-25T06:08:57.579Z,5.30
2023-04-25T06:09:59.497Z,5.55
2023-04-25T06:11:02.277Z,9.95
2023-04-25T06:12:04.605Z,6.85
2023-04-25T06:13:07.689Z,5.28
2023-04-25T06:14:11.349Z,5.43
2023-04-25T06:15:28.220Z,5.25
2023-04-25T06:16:31.379Z,5.05
2023-04-25T06:17:34.702Z,5.00
2023-04-25T06:18:38.236Z,8.57
2023-04-25T06:19:41.723Z,11.43
2023-04-25T06:20:43.985Z,5.13
2023-04-25T06:21:46.981Z,7.00
2023-04-25T06:22:48.973Z,44.70
2023-04-25T06:23:52.202Z,41.17
2023-04-25T06:24:59.834Z,39.65
2023-04-25T06:26:02.896Z,8.35
2023-04-25T06:27:06.267Z,21.30
2023-04-25T06:28:09.177Z,8.43
2023-04-25T06:29:11.659Z,5.57
2023-04-25T06:30:14.873Z,5.13
2023-04-25T06:31:16.819Z,4.97
2023-04-25T06:32:21.414Z,33.35
2023-04-25T06:33:27.658Z,24.30
2023-04-25T06:34:32.126Z,17.45
2023-04-25T06:35:36.346Z,13.65
2023-04-25T06:36:39.263Z,4.75
2023-04-25T06:37:45.502Z,4.45
2023-04-25T06:38:47.547Z,4.78
2023-04-25T06:39:50.477Z,6.13
2023-04-25T06:40:52.514Z,4.63
2023-04-25T06:41:55.903Z,6.57
2023-04-25T06:43:16.679Z,4.85
2023-04-25T06:44:31.789Z,12.88
2023-04-25T06:45:34.682Z,5.20
2023-04-25T06:46:38.860Z,4.13
2023-04-25T06:47:40.853Z,5.00
2023-04-25T06:48:44.508Z,4.15
2023-04-25T06:49:48.333Z,12.35
2023-04-25T08:38:40.171Z,4.25
2023-04-25T08:40:42.653Z,4.18
2023-04-25T08:42:49.081Z,3.97
2023-04-25T08:47:13.438Z,4.90
2023-04-25T08:51:35.476Z,4.20
2023-04-25T08:52:47.452Z,4.30
2023-04-25T08:54:30.929Z,3.90
2023-04-25T08:55:20.575Z,4.35
2023-04-25T08:56:26.170Z,3.40
2023-04-25T08:57:32.754Z,5.05
2023-04-25T08:58:38.016Z,3.38
2023-04-25T08:59:47.032Z,4.90
2023-04-25T09:00:53.360Z,4.00
2023-04-25T09:02:01.664Z,3.33
2023-04-25T09:03:07.876Z,4.30
2023-04-25T09:04:23.012Z,3.47
2023-04-25T09:05:33.300Z,3.20
2023-04-25T09:06:38.950Z,3.63
2023-04-25T09:07:46.409Z,3.88
2023-04-25T09:08:55.909Z,3.50
2023-04-25T09:10:01.083Z,5.60
2023-04-25T09:11:05.587Z,3.78
2023-04-25T09:12:09.068Z,3.10
2023-04-25T09:13:14.238Z,3.47
2023-04-25T09:14:45.166Z,4.40
2023-04-25T09:16:00.969Z,3.42
2023-04-25T09:17:25.796Z,3.70
2023-04-25T09:18:32.999Z,3.92
2023-04-25T09:19:42.421Z,7.18
2023-04-25T09:21:14.878Z,3.72
2023-04-25T09:22:23.996Z,4.20
2023-04-25T09:23:28.062Z,4.25
2023-04-25T09:24:34.306Z,4.20
2023-04-25T09:25:40.316Z,3.00
2023-04-25T09:26:45.768Z,3.58
2023-04-25T09:27:54.300Z,2.95
2023-04-25T09:29:08.629Z,3.40
2023-04-25T09:30:17.334Z,3.40
2023-04-25T09:31:39.395Z,4.30
2023-04-25T09:32:46.276Z,4.22
2023-04-25T09:33:51.842Z,3.15
2023-04-25T09:34:57.764Z,4.55
2023-04-25T09:36:08.427Z,3.00
2023-04-25T09:37:31.416Z,3.05
2023-04-25T09:38:52.832Z,4.60
2023-04-25T09:40:08.809Z,5.15
2023-04-25T09:41:25.727Z,4.03
2023-04-25T09:42:32.755Z,3.28
2023-04-25T09:43:34.646Z,3.28
2023-04-25T09:44:38.184Z,3.88
2023-04-25T09:45:46.721Z,4.78
2023-04-25T09:46:53.986Z,3.63
2023-04-25T09:48:07.108Z,4.15
2023-04-25T09:49:11.825Z,3.85
2023-04-25T09:50:33.405Z,3.13
2023-04-25T09:51:43.797Z,4.50
2023-04-25T09:52:46.692Z,3.65
2023-04-25T09:53:54.774Z,5.60
2023-04-25T09:55:11.184Z,2.35
2023-04-25T09:56:15.260Z,3.83
2023-04-25T09:57:19.587Z,2.95
2023-04-25T09:58:22.470Z,3.65
2023-04-25T09:59:25.612Z,3.00
2023-04-25T10:00:28.768Z,3.20
2023-04-25T10:01:31.815Z,2.85
2023-04-25T10:02:49.408Z,3.97
2023-04-25T10:04:13.695Z,3.50
2023-04-25T10:05:44.317Z,3.67
2023-04-25T10:06:48.209Z,4.00
2023-04-25T10:07:52.371Z,4.45
2023-04-25T10:08:56.711Z,3.55
2023-04-25T10:10:01.635Z,5.90
2023-04-25T10:11:07.868Z,4.10
2023-04-25T10:12:09.942Z,4.03
2023-04-25T10:13:15.288Z,4.18
2023-04-25T10:14:18.686Z,3.45
2023-04-25T10:15:21.699Z,3.83
2023-04-25T10:16:24.746Z,3.53
2023-04-25T10:17:28.826Z,2.45
2023-04-25T10:18:33.450Z,4.35
2023-04-25T10:19:36.449Z,2.80
2023-04-25T10:20:39.222Z,4.00
2023-04-25T10:21:47.749Z,3.80
2023-04-25T10:22:54.971Z,3.08
2023-04-25T10:23:56.816Z,4.18
2023-04-25T10:24:59.842Z,4.40
2023-04-25T10:26:02.731Z,2.95
2023-04-25T10:27:07.065Z,4.07
2023-04-25T10:28:09.820Z,3.88
2023-04-25T10:29:11.741Z,54.10
2023-04-25T10:30:17.071Z,11.77
2023-04-25T10:31:19.171Z,5.35
2023-04-25T10:32:22.311Z,3.53
2023-04-25T10:33:31.087Z,4.10
2023-04-25T10:34:41.972Z,2.83
2023-04-25T10:35:47.153Z,5.88
2023-04-25T10:36:52.104Z,4.30
2023-04-25T10:38:02.214Z,5.68
2023-04-25T10:39:09.707Z,3.78
2023-04-25T10:40:13.765Z,2.30
2023-04-25T10:41:16.563Z,5.15
2023-04-25T10:42:20.768Z,17.45
2023-04-25T10:43:37.198Z,14.32
2023-04-25T10:44:40.894Z,24.88
2023-04-25T10:45:52.586Z,4.50
2023-04-25T10:46:57.253Z,8.13
2023-04-25T10:48:00.063Z,5.22
2023-04-25T10:49:04.148Z,5.18
2023-04-25T10:50:07.124Z,2.80
2023-04-25T10:51:10.506Z,3.20
2023-04-25T10:52:14.472Z,3.05
2023-04-25T10:53:17.795Z,3.75
2023-04-25T10:54:21.091Z,4.13
2023-04-25T10:55:24.291Z,3.25
2023-04-25T10:56:27.842Z,2.90
2023-04-25T10:57:34.299Z,3.10
2023-04-25T10:58:36.084Z,2.30
2023-04-25T10:59:38.918Z,2.42
2023-04-25T11:00:53.262Z,3.35
2023-04-25T11:01:59.478Z,2.50
2023-04-25T11:03:02.598Z,1.50
2023-04-25T11:04:04.528Z,4.07
2023-04-25T11:05:08.414Z,2.63
2023-04-25T11:06:20.090Z,2.78
2023-04-25T11:07:28.211Z,2.58
2023-04-25T11:08:49.857Z,2.03
2023-04-25T11:09:53.387Z,1.70
2023-04-25T11:10:55.977Z,2.33
2023-04-25T11:12:00.047Z,2.70
2023-04-25T11:13:04.206Z,2.15
2023-04-25T11:14:07.356Z,1.65
2023-04-25T11:15:11.289Z,1.67
2023-04-25T11:16:13.619Z,1.80
2023-04-25T11:17:27.332Z,2.65
2023-04-25T11:18:30.217Z,2.17
2023-04-25T11:19:32.204Z,3.70
2023-04-25T11:20:34.920Z,2.05
2023-04-25T11:21:36.953Z,2.92
2023-04-25T11:22:41.544Z,3.58
2023-04-25T11:23:46.280Z,3.50
2023-04-25T11:24:49.039Z,1.83
2023-04-25T11:25:52.147Z,4.45
2023-04-25T11:26:53.968Z,6.20
2023-04-25T11:27:58.111Z,2.40
2023-04-25T11:29:02.732Z,3.75
2023-04-25T11:30:12.341Z,4.25
2023-04-25T11:31:15.509Z,2.95
2023-04-25T11:32:19.263Z,2.40
2023-04-25T11:33:25.974Z,1.80
2023-04-25T11:34:28.116Z,2.35
2023-04-25T11:35:30.909Z,2.50
2023-04-25T11:36:33.617Z,2.63
2023-04-25T11:37:36.447Z,3.78
2023-04-25T11:38:38.273Z,3.75
2023-04-25T11:39:45.166Z,2.95
2023-04-25T11:40:51.902Z,2.72
2023-04-25T11:41:53.909Z,2.30
2023-04-25T11:42:56.652Z,2.92
2023-04-25T11:43:58.836Z,2.10
2023-04-25T11:45:03.116Z,1.95
2023-04-25T11:46:08.262Z,2.25
2023-04-25T11:47:11.101Z,2.72
2023-04-25T11:48:12.983Z,3.35
2023-04-25T11:49:16.233Z,2.40
2023-04-25T11:50:18.972Z,2.25
2023-04-25T11:51:21.014Z,2.92
2023-04-25T11:52:23.806Z,2.10
2023-04-25T11:53:25.941Z,2.20
2023-04-25T11:54:28.704Z,4.13
2023-04-25T11:55:32.435Z,2.88
2023-04-25T11:56:34.385Z,2.03
2023-04-25T11:57:37.392Z,3.25
2023-04-25T11:58:58.645Z,2.42
2023-04-25T12:00:12.103Z,4.28
2023-04-25T12:01:29.892Z,3.92
2023-04-25T12:02:37.126Z,2.63
2023-04-25T12:03:47.940Z,2.15
2023-04-25T12:04:51.274Z,3.13
2023-04-25T12:05:53.577Z,2.35
2023-04-25T12:06:57.277Z,2.78
2023-04-25T12:07:59.195Z,1.98
2023-04-25T12:09:04.637Z,1.88
2023-04-25T12:10:09.240Z,2.85
2023-04-25T12:11:22.605Z,1.90
2023-04-25T12:12:29.639Z,1.90
2023-04-25T12:13:33.846Z,2.58
2023-04-25T12:14:36.796Z,3.50
2023-04-25T12:15:42.881Z,2.03
2023-04-25T12:16:47.341Z,4.93
2023-04-25T12:17:53.249Z,5.30
2023-04-25T12:18:55.043Z,3.60
2023-04-25T12:19:57.787Z,2.10
2023-04-25T12:21:01.146Z,1.75
2023-04-25T12:22:04.967Z,2.38
2023-04-25T12:23:08.742Z,3.47
2023-04-25T12:24:13.227Z,3.28
2023-04-25T12:25:35.822Z,1.83
2023-04-25T12:26:51.276Z,2.03
2023-04-25T12:27:54.050Z,2.20
2023-04-25T12:28:55.805Z,2.97
2023-04-25T12:29:59.406Z,2.70
2023-04-25T12:31:05.347Z,3.25
2023-04-25T12:32:07.354Z,2.10
2023-04-25T12:33:10.701Z,2.97
2023-04-25T12:34:12.878Z,2.35
2023-04-25T12:35:15.906Z,3.58
2023-04-25T12:36:18.072Z,2.78
2023-04-25T12:37:21.314Z,3.95
2023-04-25T12:38:27.613Z,2.55
2023-04-25T12:39:30.604Z,3.50
2023-04-25T12:40:32.501Z,3.60
2023-04-25T12:41:35.439Z,3.58
2023-04-25T12:42:38.193Z,2.20
2023-04-25T12:43:40.131Z,4.28
2023-04-25T12:44:43.031Z,3.40
2023-04-25T12:45:46.207Z,4.38
2023-04-25T12:46:51.247Z,4.10
2023-04-25T12:47:53.318Z,2.75
2023-04-25T12:49:05.306Z,4.25
2023-04-25T12:50:14.661Z,2.15
2023-04-25T12:51:16.518Z,3.30
2023-04-25T12:52:19.276Z,3.72
2023-04-25T12:53:22.545Z,1.77
2023-04-25T12:54:25.811Z,4.50
2023-04-25T12:55:27.665Z,1.90
2023-04-25T12:56:30.592Z,2.47
2023-04-25T12:57:33.443Z,3.38
2023-04-25T12:58:36.211Z,3.00
2023-04-25T12:59:39.315Z,3.60
2023-04-25T13:00:41.144Z,2.67
2023-04-25T13:01:45.324Z,4.07
2023-04-25T13:02:48.716Z,4.82
2023-04-25T13:03:51.879Z,3.10
2023-04-25T13:04:54.783Z,4.35
2023-04-25T13:05:56.734Z,4.50
2023-04-25T13:06:59.567Z,3.13
2023-04-25T13:08:02.384Z,3.38
2023-04-25T13:09:05.567Z,2.92
2023-04-25T13:10:09.380Z,3.80
2023-04-25T13:11:11.353Z,3.80
2023-04-25T13:12:14.178Z,4.13
2023-04-25T13:13:17.482Z,3.22
2023-04-25T13:14:20.246Z,5.05
2023-04-25T13:15:22.895Z,3.80
2023-04-25T13:16:25.963Z,3.92
2023-04-25T13:17:29.042Z,3.13
2023-04-25T13:18:32.489Z,4.90
2023-04-25T13:19:35.288Z,3.10
2023-04-25T13:20:37.076Z,2.70
2023-04-25T13:21:39.810Z,2.85
2023-04-25T13:22:43.012Z,3.88
2023-04-25T13:23:47.504Z,3.33
2023-04-25T13:24:49.259Z,2.03
2023-04-25T13:25:52.136Z,2.65
2023-04-25T13:26:54.853Z,2.55
2023-04-25T13:27:57.591Z,2.70
2023-04-25T13:29:04.647Z,2.15
2023-04-25T13:30:08.993Z,4.53
2023-04-25T13:31:11.772Z,3.30
2023-04-25T13:32:13.880Z,2.00
2023-04-25T13:33:16.718Z,2.60
2023-04-25T13:34:20.789Z,2.58
2023-04-25T13:35:22.674Z,3.65
2023-04-25T13:36:26.927Z,1.75
2023-04-25T13:37:28.873Z,2.97
2023-04-25T13:38:31.675Z,3.78
2023-04-25T13:39:33.485Z,4.00
2023-04-25T13:40:37.054Z,3.72
2023-04-25T13:41:38.965Z,2.88
2023-04-25T13:42:42.160Z,2.33
2023-04-25T13:43:44.884Z,2.75
2023-04-25T13:44:47.719Z,5.57
2023-04-25T13:45:49.610Z,2.53
2023-04-25T13:46:52.378Z,3.65
2023-04-25T13:47:55.264Z,4.35
2023-04-25T13:49:03.022Z,3.85
2023-04-25T13:50:14.640Z,3.55
2023-04-25T13:51:17.699Z,3.70
2023-04-25T13:52:20.575Z,2.38
2023-04-25T13:53:22.373Z,2.80
2023-04-25T13:54:25.104Z,1.92
2023-04-25T13:55:27.351Z,2.88
2023-04-25T13:56:30.105Z,1.70
2023-04-25T13:57:32.169Z,2.80
2023-04-25T13:58:34.998Z,3.88
2023-04-25T13:59:37.788Z,2.45
2023-04-25T14:00:40.720Z,2.58
2023-04-25T14:01:43.707Z,3.47
2023-04-25T14:02:46.696Z,3.00
2023-04-25T14:03:50.686Z,4.28
2023-04-25T14:04:52.891Z,3.65
2023-04-25T14:05:57.039Z,2.92
2023-04-25T14:07:00.645Z,3.72
2023-04-25T14:08:02.615Z,3.25
2023-04-25T14:09:05.714Z,4.53
2023-04-25T14:10:08.240Z,2.33
2023-04-25T14:11:11.085Z,4.55
2023-04-25T14:12:12.996Z,2.47
2023-04-25T14:13:16.057Z,2.63
2023-04-25T14:14:17.916Z,2.53
2023-04-25T14:15:21.137Z,2.70
2023-04-25T14:16:23.995Z,2.10
2023-04-25T14:17:26.949Z,4.20
2023-04-25T14:18:29.744Z,2.97
2023-04-25T14:19:31.628Z,2.50
2023-04-25T14:20:34.436Z,3.05
2023-04-25T14:21:37.569Z,3.15
2023-04-25T14:22:43.869Z,3.20
2023-04-25T14:23:47.801Z,3.67
2023-04-25T14:24:50.552Z,7.53
2023-04-25T14:25:52.300Z,2.63
2023-04-25T14:26:55.104Z,3.42
2023-04-25T14:27:56.883Z,3.80
2023-04-25T14:28:59.685Z,3.22
2023-04-25T14:30:01.545Z,3.10
2023-04-25T14:31:04.448Z,2.92
2023-04-25T14:32:06.465Z,3.17
2023-04-25T14:33:09.331Z,7.72
2023-04-25T14:34:12.287Z,2.83
2023-04-25T14:35:15.075Z,4.00
2023-04-25T14:36:17.096Z,4.22
2023-04-25T14:37:21.185Z,2.80
2023-04-25T14:38:24.239Z,3.30
2023-04-25T14:39:27.124Z,2.90
2023-04-25T14:40:29.906Z,2.75
2023-04-25T14:41:32.739Z,3.95
2023-04-25T14:42:35.156Z,2.70
2023-04-25T14:43:38.275Z,4.38
2023-04-25T14:44:40.077Z,2.50
2023-04-25T14:45:42.930Z,4.43
2023-04-25T14:46:45.878Z,3.38
2023-04-25T14:47:47.816Z,3.20
2023-04-25T14:48:50.766Z,4.13
2023-04-25T14:49:55.100Z,2.60
2023-04-25T14:50:58.257Z,2.60
2023-04-25T14:52:01.091Z,9.50
2023-04-25T14:53:05.244Z,16.52
2023-04-25T14:54:07.245Z,5.72
2023-04-25T14:55:10.757Z,12.10
2023-04-25T14:56:13.461Z,5.28
2023-04-25T14:57:16.261Z,3.45
2023-04-25T14:58:18.131Z,5.45
2023-04-25T14:59:21.406Z,3.53
2023-04-25T15:00:23.253Z,4.07
2023-04-25T15:01:26.433Z,3.40
2023-04-25T15:02:29.945Z,2.72
2023-04-25T15:03:32.968Z,4.13
2023-04-25T15:04:36.148Z,3.63
2023-04-25T15:05:38.037Z,3.05
2023-04-25T15:06:40.777Z,4.32
2023-04-25T15:07:42.974Z,4.22
2023-04-25T15:08:47.054Z,6.03
2023-04-25T15:09:49.042Z,2.72
2023-04-25T15:10:52.502Z,3.78
2023-04-25T15:11:55.240Z,4.13
2023-04-25T15:12:57.004Z,3.67
2023-04-25T15:13:59.773Z,3.80
2023-04-25T15:15:02.632Z,4.18
2023-04-25T15:16:05.917Z,3.67
2023-04-25T15:17:08.122Z,3.13
2023-04-25T15:18:11.178Z,2.80
2023-04-25T15:19:12.936Z,3.65
2023-04-25T15:20:16.054Z,5.47
2023-04-25T15:21:17.869Z,5.90
2023-04-25T15:22:20.640Z,3.15
2023-04-25T15:23:22.850Z,5.88
2023-04-25T15:24:27.306Z,3.03
2023-04-25T15:25:29.530Z,3.10
2023-04-25T15:26:32.430Z,3.65
2023-04-25T15:27:34.490Z,3.47
2023-04-25T15:28:37.315Z,2.80
2023-04-25T15:29:39.216Z,4.13
2023-04-25T15:30:41.926Z,4.03
2023-04-25T15:31:44.757Z,3.63
2023-04-25T15:32:47.489Z,3.42
2023-04-25T15:33:50.372Z,4.45
2023-04-25T15:34:52.319Z,5.15
2023-04-25T15:35:55.129Z,4.32
2023-04-25T15:36:58.583Z,2.88
2023-04-25T15:38:00.522Z,3.78
2023-04-25T15:39:03.812Z,3.78
2023-04-25T15:40:09.959Z,3.53
2023-04-25T15:41:12.707Z,4.35
2023-04-25T15:42:15.582Z,4.78
2023-04-25T15:43:17.381Z,5.15
2023-04-25T15:44:20.189Z,3.72
2023-04-25T15:45:25.703Z,3.30
2023-04-25T15:46:28.634Z,4.55
2023-04-25T15:47:30.484Z,5.55
2023-04-25T15:48:33.587Z,3.00
2023-04-25T15:49:35.371Z,4.18
2023-04-25T15:50:38.088Z,3.13
2023-04-25T15:51:40.904Z,6.85
2023-04-25T15:52:43.575Z,4.22
2023-04-25T15:53:47.130Z,3.70
2023-04-25T15:54:49.344Z,4.55
2023-04-25T15:55:53.466Z,4.18
2023-04-25T15:56:55.271Z,4.13
2023-04-25T15:57:58.052Z,5.13
2023-04-25T15:59:00.752Z,3.72
2023-04-25T16:00:07.983Z,4.40
2023-04-25T16:01:15.036Z,3.92
2023-04-25T16:02:17.638Z,4.78
2023-04-25T16:03:20.600Z,3.97
2023-04-25T16:04:25.194Z,4.90
2023-04-25T16:05:27.126Z,8.32
2023-04-25T16:06:30.218Z,4.75
2023-04-25T16:07:32.082Z,4.20
2023-04-25T16:08:35.865Z,3.50
2023-04-25T16:09:37.747Z,3.70
2023-04-25T16:10:40.819Z,4.30
2023-04-25T16:11:44.938Z,3.58
2023-04-25T16:12:47.972Z,5.43
2023-04-25T16:13:51.379Z,3.72
2023-04-25T16:14:53.277Z,3.70
2023-04-25T16:15:56.139Z,4.53
2023-04-25T16:17:00.361Z,4.85
2023-04-25T16:18:03.207Z,4.10
2023-04-25T16:19:05.314Z,5.13
2023-04-25T16:20:10.674Z,3.88
2023-04-25T16:21:17.038Z,3.70